sensor_id;sensor_type;location;lat;lon;timestamp;pressure;altitude;pressure_sealevel;temperature;humidity
29379;BME280;16362;47.202;15.258;2022-11-14T00:00:53;97050.88;;;5.59;100.00
29379;BME280;16362;47.202;15.258;2022-11-14T00:03:20;97044.34;;;5.63;100.00
29379;BME280;16362;47.202;15.258;2022-11-14T00:05:47;97027.03;;;5.59;100.00
29379;BME280;16362;47.202;15.258;2022-11-14T00:08:19;97030.06;;;5.54;100.00
29379;BME280;16362;47.202;15.258;2022-11-14T00:10:47;97032.25;;;5.49;100.00
29379;BME280;16362;47.202;15.258;2022-11-14T00:13:16;97033.72;;;5.42;100.00
29379;BME280;16362;47.202;15.258;2022-11-14T00:15:44;97034.19;;;5.35;100.00
29379;BME280;16362;47.202;15.258;2022-11-14T00:18:13;97043.00;;;5.36;100.00
29379;BME280;16362;47.202;15.258;2022-11-14T00:20:39;97040.34;;;5.36;100.00
29379;BME280;16362;47.202;15.258;2022-11-14T00:23:06;97039.25;;;5.38;100.00
29379;BME280;16362;47.202;15.258;2022-11-14T00:25:33;97036.38;;;5.42;100.00
29379;BME280;16362;47.202;15.258;2022-11-14T00:27:59;97018.91;;;5.39;100.00
29379;BME280;16362;47.202;15.258;2022-11-14T00:30:26;97010.50;;;5.34;100.00
29379;BME280;16362;47.202;15.258;2022-11-14T00:32:53;96998.84;;;5.36;100.00
29379;BME280;16362;47.202;15.258;2022-11-14T00:35:20;97000.53;;;5.37;100.00
29379;BME280;16362;47.202;15.258;2022-11-14T00:37:46;97002.31;;;5.37;100.00
29379;BME280;16362;47.202;15.258;2022-11-14T00:40:13;97007.03;;;5.33;100.00
29379;BME280;16362;47.202;15.258;2022-11-14T00:42:40;97002.69;;;5.32;100.00
29379;BME280;16362;47.202;15.258;2022-11-14T00:45:08;97014.84;;;5.35;100.00
29379;BME280;16362;47.202;15.258;2022-11-14T00:47:35;97009.28;;;5.38;100.00
29379;BME280;16362;47.202;15.258;2022-11-14T00:50:02;97010.84;;;5.40;100.00
29379;BME280;16362;47.202;15.258;2022-11-14T00:52:29;97011.31;;;5.46;100.00
29379;BME280;16362;47.202;15.258;2022-11-14T00:54:56;97010.25;;;5.48;100.00
29379;BME280;16362;47.202;15.258;2022-11-14T00:57:23;97002.16;;;5.50;100.00
29379;BME280;16362;47.202;15.258;2022-11-14T00:59:49;97006.59;;;5.49;100.00
29379;BME280;16362;47.202;15.258;2022-11-14T01:02:16;97012.16;;;5.46;100.00
29379;BME280;16362;47.202;15.258;2022-11-14T01:04:43;97017.84;;;5.42;100.00
29379;BME280;16362;47.202;15.258;2022-11-14T01:07:09;97012.53;;;5.42;100.00
29379;BME280;16362;47.202;15.258;2022-11-14T01:09:36;97006.88;;;5.46;100.00
29379;BME280;16362;47.202;15.258;2022-11-14T01:12:03;97006.88;;;5.46;100.00
29379;BME280;16362;47.202;15.258;2022-11-14T01:14:29;97002.28;;;5.48;100.00
29379;BME280;16362;47.202;15.258;2022-11-14T01:16:56;97003.25;;;5.47;100.00
29379;BME280;16362;47.202;15.258;2022-11-14T01:19:23;96998.09;;;5.46;100.00
29379;BME280;16362;47.202;15.258;2022-11-14T01:21:49;97003.13;;;5.49;100.00
29379;BME280;16362;47.202;15.258;2022-11-14T01:24:16;96996.63;;;5.53;100.00
29379;BME280;16362;47.202;15.258;2022-11-14T01:26:43;97005.28;;;5.55;100.00
29379;BME280;16362;47.202;15.258;2022-11-14T01:29:09;97003.59;;;5.54;100.00
29379;BME280;16362;47.202;15.258;2022-11-14T01:31:36;97007.22;;;5.53;100.00
29379;BME280;16362;47.202;15.258;2022-11-14T01:34:03;97001.09;;;5.52;100.00
29379;BME280;16362;47.202;15.258;2022-11-14T01:36:29;96982.69;;;5.51;100.00
29379;BME280;16362;47.202;15.258;2022-11-14T01:38:56;96983.50;;;5.51;100.00
29379;BME280;16362;47.202;15.258;2022-11-14T01:41:22;96982.28;;;5.55;100.00
29379;BME280;16362;47.202;15.258;2022-11-14T01:43:49;96995.88;;;5.62;100.00
29379;BME280;16362;47.202;15.258;2022-11-14T01:46:21;96990.09;;;5.57;100.00
29379;BME280;16362;47.202;15.258;2022-11-14T01:51:36;96990.97;;;5.57;100.00
29379;BME280;16362;47.202;15.258;2022-11-14T01:54:07;96988.31;;;5.57;100.00
29379;BME280;16362;47.202;15.258;2022-11-14T01:56:39;96981.31;;;5.56;100.00
29379;BME280;16362;47.202;15.258;2022-11-14T01:59:11;96981.91;;;5.60;100.00
29379;BME280;16362;47.202;15.258;2022-11-14T02:01:49;96976.50;;;5.62;100.00
29379;BME280;16362;47.202;15.258;2022-11-14T02:04:20;96973.00;;;5.61;100.00
29379;BME280;16362;47.202;15.258;2022-11-14T02:06:49;96961.84;;;5.57;100.00
29379;BME280;16362;47.202;15.258;2022-11-14T02:09:17;96964.47;;;5.57;100.00
29379;BME280;16362;47.202;15.258;2022-11-14T02:11:44;96964.69;;;5.66;100.00
29379;BME280;16362;47.202;15.258;2022-11-14T02:14:11;96957.72;;;5.65;100.00
29379;BME280;16362;47.202;15.258;2022-11-14T02:16:40;96955.19;;;5.63;100.00
29379;BME280;16362;47.202;15.258;2022-11-14T02:19:46;96955.41;;;5.60;100.00
29379;BME280;16362;47.202;15.258;2022-11-14T02:22:13;96952.06;;;5.58;100.00
29379;BME280;16362;47.202;15.258;2022-11-14T02:24:40;96954.59;;;5.60;100.00
29379;BME280;16362;47.202;15.258;2022-11-14T02:27:07;96950.13;;;5.60;100.00
29379;BME280;16362;47.202;15.258;2022-11-14T02:29:35;96949.28;;;5.60;100.00
29379;BME280;16362;47.202;15.258;2022-11-14T02:32:02;96951.81;;;5.61;100.00
29379;BME280;16362;47.202;15.258;2022-11-14T02:34:36;96934.00;;;5.63;100.00
29379;BME280;16362;47.202;15.258;2022-11-14T02:37:03;96937.34;;;5.65;100.00
29379;BME280;16362;47.202;15.258;2022-11-14T02:39:29;96922.56;;;5.63;100.00
29379;BME280;16362;47.202;15.258;2022-11-14T02:41:56;96918.25;;;5.62;100.00
29379;BME280;16362;47.202;15.258;2022-11-14T02:44:23;96934.00;;;5.63;100.00
29379;BME280;16362;47.202;15.258;2022-11-14T02:46:49;96931.50;;;5.62;100.00
29379;BME280;16362;47.202;15.258;2022-11-14T02:49:16;96925.47;;;5.60;100.00
29379;BME280;16362;47.202;15.258;2022-11-14T02:51:43;96931.72;;;5.59;100.00
29379;BME280;16362;47.202;15.258;2022-11-14T02:54:10;96930.50;;;5.63;100.00
29379;BME280;16362;47.202;15.258;2022-11-14T02:56:36;96931.09;;;5.66;100.00
29379;BME280;16362;47.202;15.258;2022-11-14T02:59:03;96924.56;;;5.70;100.00
29379;BME280;16362;47.202;15.258;2022-11-14T03:01:29;96923.63;;;5.71;100.00
29379;BME280;16362;47.202;15.258;2022-11-14T03:03:56;96918.69;;;5.67;100.00
29379;BME280;16362;47.202;15.258;2022-11-14T03:06:23;96923.16;;;5.66;100.00
29379;BME280;16362;47.202;15.258;2022-11-14T03:08:49;96927.97;;;5.61;100.00
29379;BME280;16362;47.202;15.258;2022-11-14T03:11:17;96922.81;;;5.60;100.00
29379;BME280;16362;47.202;15.258;2022-11-14T03:13:43;96930.25;;;5.66;100.00
29379;BME280;16362;47.202;15.258;2022-11-14T03:16:11;96923.41;;;5.63;100.00
29379;BME280;16362;47.202;15.258;2022-11-14T03:18:38;96921.22;;;5.68;100.00
29379;BME280;16362;47.202;15.258;2022-11-14T03:21:07;96919.69;;;5.66;100.00
29379;BME280;16362;47.202;15.258;2022-11-14T03:23:34;96924.97;;;5.66;100.00
29379;BME280;16362;47.202;15.258;2022-11-14T03:26:02;96922.44;;;5.64;100.00
29379;BME280;16362;47.202;15.258;2022-11-14T03:28:29;96923.41;;;5.63;100.00
29379;BME280;16362;47.202;15.258;2022-11-14T03:30:57;96918.47;;;5.59;100.00
29379;BME280;16362;47.202;15.258;2022-11-14T03:33:23;96916.28;;;5.64;100.00
29379;BME280;16362;47.202;15.258;2022-11-14T03:35:51;96913.38;;;5.67;100.00
29379;BME280;16362;47.202;15.258;2022-11-14T03:38:18;96913.38;;;5.67;100.00
29379;BME280;16362;47.202;15.258;2022-11-14T03:40:49;96908.34;;;5.64;100.00
29379;BME280;16362;47.202;15.258;2022-11-14T03:43:17;96909.66;;;5.69;100.00
29379;BME280;16362;47.202;15.258;2022-11-14T03:45:44;96900.03;;;5.68;100.00
29379;BME280;16362;47.202;15.258;2022-11-14T03:48:11;96884.25;;;5.67;100.00
29379;BME280;16362;47.202;15.258;2022-11-14T03:50:39;96890.53;;;5.66;100.00
29379;BME280;16362;47.202;15.258;2022-11-14T03:53:06;96889.69;;;5.65;100.00
29379;BME280;16362;47.202;15.258;2022-11-14T03:55:33;96882.00;;;5.62;100.00
29379;BME280;16362;47.202;15.258;2022-11-14T03:57:59;96878.06;;;5.56;100.00
29379;BME280;16362;47.202;15.258;2022-11-14T04:00:26;96877.81;;;5.60;100.00
29379;BME280;16362;47.202;15.258;2022-11-14T04:02:55;96872.13;;;5.64;100.00
29379;BME280;16362;47.202;15.258;2022-11-14T04:05:22;96884.16;;;5.68;100.00
29379;BME280;16362;47.202;15.258;2022-11-14T04:07:50;96887.63;;;5.69;100.00
29379;BME280;16362;47.202;15.258;2022-11-14T04:10:16;96891.97;;;5.70;100.00
29379;BME280;16362;47.202;15.258;2022-11-14T04:12:52;96897.41;;;5.68;100.00
29379;BME280;16362;47.202;15.258;2022-11-14T04:15:19;96901.97;;;5.66;100.00
29379;BME280;16362;47.202;15.258;2022-11-14T04:17:46;96894.16;;;5.65;100.00
29379;BME280;16362;47.202;15.258;2022-11-14T04:20:14;96894.03;;;5.66;100.00
29379;BME280;16362;47.202;15.258;2022-11-14T04:22:40;96897.50;;;5.67;100.00
29379;BME280;16362;47.202;15.258;2022-11-14T04:25:08;96891.25;;;5.68;100.00
29379;BME280;16362;47.202;15.258;2022-11-14T04:27:35;96890.16;;;5.70;100.00
29379;BME280;16362;47.202;15.258;2022-11-14T04:30:03;96890.88;;;5.72;100.00
29379;BME280;16362;47.202;15.258;2022-11-14T04:32:30;96889.78;;;5.75;100.00
29379;BME280;16362;47.202;15.258;2022-11-14T04:34:57;96893.38;;;5.74;100.00
29379;BME280;16362;47.202;15.258;2022-11-14T04:37:23;96894.81;;;5.78;100.00
29379;BME280;16362;47.202;15.258;2022-11-14T04:39:50;96900.25;;;5.77;100.00
29379;BME280;16362;47.202;15.258;2022-11-14T04:42:17;96890.75;;;5.74;100.00
29379;BME280;16362;47.202;15.258;2022-11-14T04:44:44;96898.81;;;5.72;100.00
29379;BME280;16362;47.202;15.258;2022-11-14T04:47:10;96896.03;;;5.74;100.00
29379;BME280;16362;47.202;15.258;2022-11-14T04:49:37;96903.97;;;5.74;100.00
29379;BME280;16362;47.202;15.258;2022-11-14T04:52:04;96897.97;;;5.72;100.00
29379;BME280;16362;47.202;15.258;2022-11-14T04:54:30;96903.78;;;5.66;100.00
29379;BME280;16362;47.202;15.258;2022-11-14T04:56:57;96904.75;;;5.65;100.00
29379;BME280;16362;47.202;15.258;2022-11-14T04:59:24;96899.59;;;5.63;100.00
29379;BME280;16362;47.202;15.258;2022-11-14T05:01:50;96904.88;;;5.63;100.00
29379;BME280;16362;47.202;15.258;2022-11-14T05:04:17;96897.75;;;5.64;100.00
29379;BME280;16362;47.202;15.258;2022-11-14T05:06:45;96904.47;;;5.68;100.00
29379;BME280;16362;47.202;15.258;2022-11-14T05:09:11;96906.03;;;5.70;100.00
29379;BME280;16362;47.202;15.258;2022-11-14T05:11:38;96899.06;;;5.69;100.00
29379;BME280;16362;47.202;15.258;2022-11-14T05:14:05;96897.25;;;5.70;100.00
29379;BME280;16362;47.202;15.258;2022-11-14T05:16:31;96902.03;;;5.76;100.00
29379;BME280;16362;47.202;15.258;2022-11-14T05:18:58;96897.81;;;5.73;100.00
29379;BME280;16362;47.202;15.258;2022-11-14T05:21:26;96901.06;;;5.77;100.00
29379;BME280;16362;47.202;15.258;2022-11-14T05:23:53;96894.63;;;5.70;100.00
29379;BME280;16362;47.202;15.258;2022-11-14T05:26:19;96893.88;;;5.68;100.00
29379;BME280;16362;47.202;15.258;2022-11-14T05:28:46;96898.34;;;5.67;100.00
29379;BME280;16362;47.202;15.258;2022-11-14T05:31:13;96904.47;;;5.68;100.00
29379;BME280;16362;47.202;15.258;2022-11-14T05:33:44;96894.03;;;5.66;100.00
29379;BME280;16362;47.202;15.258;2022-11-14T05:36:13;96893.19;;;5.66;100.00
29379;BME280;16362;47.202;15.258;2022-11-14T05:38:41;96893.19;;;5.66;100.00
29379;BME280;16362;47.202;15.258;2022-11-14T05:41:14;96894.84;;;5.67;100.00
29379;BME280;16362;47.202;15.258;2022-11-14T05:43:41;96888.59;;;5.68;100.00
29379;BME280;16362;47.202;15.258;2022-11-14T05:46:10;96890.78;;;5.63;100.00
29379;BME280;16362;47.202;15.258;2022-11-14T05:48:37;96895.25;;;5.62;100.00
29379;BME280;16362;47.202;15.258;2022-11-14T05:51:06;96885.47;;;5.63;100.00
29379;BME280;16362;47.202;15.258;2022-11-14T05:53:33;96894.16;;;5.65;100.00
29379;BME280;16362;47.202;15.258;2022-11-14T05:56:06;96904.47;;;5.68;100.00
29379;BME280;16362;47.202;15.258;2022-11-14T05:58:33;96892.19;;;5.67;100.00
29379;BME280;16362;47.202;15.258;2022-11-14T06:01:11;96893.19;;;5.66;100.00
29379;BME280;16362;47.202;15.258;2022-11-14T06:03:40;96894.16;;;5.65;100.00
29379;BME280;16362;47.202;15.258;2022-11-14T06:06:09;96895.84;;;5.66;100.00
29379;BME280;16362;47.202;15.258;2022-11-14T06:08:37;96891.25;;;5.68;100.00
29379;BME280;16362;47.202;15.258;2022-11-14T06:11:07;96897.41;;;5.68;100.00
29379;BME280;16362;47.202;15.258;2022-11-14T06:13:34;96898.91;;;5.71;100.00
29379;BME280;16362;47.202;15.258;2022-11-14T06:16:03;96898.81;;;5.72;100.00
29379;BME280;16362;47.202;15.258;2022-11-14T06:18:31;96896.16;;;5.72;100.00
29379;BME280;16362;47.202;15.258;2022-11-14T06:21:00;96900.09;;;5.78;100.00
29379;BME280;16362;47.202;15.258;2022-11-14T06:23:27;96899.25;;;5.78;100.00
29379;BME280;16362;47.202;15.258;2022-11-14T06:26:02;96898.41;;;5.77;100.00
29379;BME280;16362;47.202;15.258;2022-11-14T06:28:29;96901.31;;;5.74;100.00
29379;BME280;16362;47.202;15.258;2022-11-14T06:31:01;96902.03;;;5.76;100.00
29379;BME280;16362;47.202;15.258;2022-11-14T06:33:32;96906.50;;;5.76;100.00
29379;BME280;16362;47.202;15.258;2022-11-14T06:36:01;96906.09;;;5.80;100.00
29379;BME280;16362;47.202;15.258;2022-11-14T06:38:30;96913.91;;;5.82;100.00
29379;BME280;16362;47.202;15.258;2022-11-14T06:41:07;96903.84;;;5.76;100.00
29379;BME280;16362;47.202;15.258;2022-11-14T06:43:36;96902.03;;;5.76;100.00
29379;BME280;16362;47.202;15.258;2022-11-14T06:46:04;96900.78;;;5.80;100.00
29379;BME280;16362;47.202;15.258;2022-11-14T06:48:31;96897.06;;;5.83;100.00
29379;BME280;16362;47.202;15.258;2022-11-14T06:51:00;96894.28;;;5.84;100.00
29379;BME280;16362;47.202;15.258;2022-11-14T06:53:28;96902.69;;;5.89;100.00
29379;BME280;16362;47.202;15.258;2022-11-14T06:58:28;96895.31;;;5.93;100.00
29379;BME280;16362;47.202;15.258;2022-11-14T07:00:56;96898.66;;;5.95;100.00
29379;BME280;16362;47.202;15.258;2022-11-14T07:03:22;96911.47;;;6.11;100.00
29379;BME280;16362;47.202;15.258;2022-11-14T07:05:49;96909.94;;;6.09;100.00
29379;BME280;16362;47.202;15.258;2022-11-14T07:08:16;96913.50;;;5.98;100.00
29379;BME280;16362;47.202;15.258;2022-11-14T07:10:46;96915.91;;;6.01;100.00
29379;BME280;16362;47.202;15.258;2022-11-14T07:13:13;96908.06;;;5.99;100.00
29379;BME280;16362;47.202;15.258;2022-11-14T07:15:48;96909.06;;;5.98;100.00
29379;BME280;16362;47.202;15.258;2022-11-14T07:18:15;96906.28;;;6.00;100.00
29379;BME280;16362;47.202;15.258;2022-11-14T07:20:41;96912.25;;;6.02;100.00
29379;BME280;16362;47.202;15.258;2022-11-14T07:23:08;96904.09;;;5.94;100.00
29379;BME280;16362;47.202;15.258;2022-11-14T07:25:35;96902.31;;;5.94;100.00
29379;BME280;16362;47.202;15.258;2022-11-14T07:28:01;96898.31;;;6.00;100.00
29379;BME280;16362;47.202;15.258;2022-11-14T07:30:28;96902.25;;;6.05;100.00
29379;BME280;16362;47.202;15.258;2022-11-14T07:32:55;96897.28;;;6.12;100.00
29379;BME280;16362;47.202;15.258;2022-11-14T07:35:23;96897.97;;;6.14;100.00
29379;BME280;16362;47.202;15.258;2022-11-14T07:37:50;96888.91;;;6.17;100.00
29379;BME280;16362;47.202;15.258;2022-11-14T07:40:17;96887.81;;;6.19;100.00
29379;BME280;16362;47.202;15.258;2022-11-14T07:42:44;96888.41;;;6.23;100.00
29379;BME280;16362;47.202;15.258;2022-11-14T07:45:10;96888.97;;;6.27;100.00
29379;BME280;16362;47.202;15.258;2022-11-14T07:47:37;96880.03;;;6.28;100.00
29379;BME280;16362;47.202;15.258;2022-11-14T07:50:04;96879.06;;;6.29;100.00
29379;BME280;16362;47.202;15.258;2022-11-14T07:52:31;96880.34;;;6.34;100.00
29379;BME280;16362;47.202;15.258;2022-11-14T07:54:58;96873.69;;;6.40;100.00
29379;BME280;16362;47.202;15.258;2022-11-14T07:57:25;96877.44;;;6.37;100.00
29379;BME280;16362;47.202;15.258;2022-11-14T07:59:52;96877.03;;;6.42;100.00
29379;BME280;16362;47.202;15.258;2022-11-14T08:02:18;96880.00;;;6.49;100.00
29379;BME280;16362;47.202;15.258;2022-11-14T08:04:45;96872.63;;;6.52;100.00
29379;BME280;16362;47.202;15.258;2022-11-14T08:07:12;96877.13;;;6.62;100.00
29379;BME280;16362;47.202;15.258;2022-11-14T08:09:38;96874.06;;;6.76;100.00
29379;BME280;16362;47.202;15.258;2022-11-14T08:12:05;96877.31;;;6.89;100.00
29379;BME280;16362;47.202;15.258;2022-11-14T08:14:32;96882.09;;;6.96;100.00
29379;BME280;16362;47.202;15.258;2022-11-14T08:16:59;96877.91;;;6.93;100.00
29379;BME280;16362;47.202;15.258;2022-11-14T08:19:25;96884.47;;;6.99;100.00
29379;BME280;16362;47.202;15.258;2022-11-14T08:21:52;96879.69;;;6.93;100.00
29379;BME280;16362;47.202;15.258;2022-11-14T08:24:18;96877.03;;;6.93;100.00
29379;BME280;16362;47.202;15.258;2022-11-14T08:26:45;96879.44;;;6.96;100.00
29379;BME280;16362;47.202;15.258;2022-11-14T08:29:12;96877.03;;;6.93;100.00
29379;BME280;16362;47.202;15.258;2022-11-14T08:31:38;96875.91;;;6.85;100.00
29379;BME280;16362;47.202;15.258;2022-11-14T08:34:05;96873.25;;;6.85;100.00
29379;BME280;16362;47.202;15.258;2022-11-14T08:36:32;96870.63;;;6.85;100.00
29379;BME280;16362;47.202;15.258;2022-11-14T08:38:58;96870.09;;;6.91;100.00
29379;BME280;16362;47.202;15.258;2022-11-14T08:41:27;96874.38;;;6.93;100.00
29379;BME280;16362;47.202;15.258;2022-11-14T08:43:54;96872.47;;;7.04;100.00
29379;BME280;16362;47.202;15.258;2022-11-14T08:46:21;96870.53;;;7.06;100.00
29379;BME280;16362;47.202;15.258;2022-11-14T08:48:47;96859.91;;;7.26;100.00
29379;BME280;16362;47.202;15.258;2022-11-14T08:51:14;96856.56;;;7.24;100.00
29379;BME280;16362;47.202;15.258;2022-11-14T08:53:41;96861.88;;;7.34;100.00
29379;BME280;16362;47.202;15.258;2022-11-14T08:56:11;96857.38;;;7.34;100.00
29379;BME280;16362;47.202;15.258;2022-11-14T08:58:37;96858.66;;;7.40;100.00
29379;BME280;16362;47.202;15.258;2022-11-14T09:01:05;96863.25;;;7.48;100.00
29379;BME280;16362;47.202;15.258;2022-11-14T09:03:32;96868.16;;;7.52;100.00
29379;BME280;16362;47.202;15.258;2022-11-14T09:06:00;96863.25;;;7.48;100.00
29379;BME280;16362;47.202;15.258;2022-11-14T09:08:28;96869.00;;;7.53;100.00
29379;BME280;16362;47.202;15.258;2022-11-14T09:10:59;96866.47;;;7.51;100.00
29379;BME280;16362;47.202;15.258;2022-11-14T09:13:32;96866.47;;;7.61;100.00
29379;BME280;16362;47.202;15.258;2022-11-14T09:15:59;96863.13;;;7.59;100.00
29379;BME280;16362;47.202;15.258;2022-11-14T09:18:26;96866.03;;;7.66;100.00
29379;BME280;16362;47.202;15.258;2022-11-14T09:20:58;96856.66;;;7.81;100.00
29379;BME280;16362;47.202;15.258;2022-11-14T09:23:25;96854.69;;;7.83;100.00
29379;BME280;16362;47.202;15.258;2022-11-14T09:25:52;96857.34;;;7.93;100.00
29379;BME280;16362;47.202;15.258;2022-11-14T09:28:20;96849.19;;;8.04;100.00
29379;BME280;16362;47.202;15.258;2022-11-14T09:30:46;96849.19;;;8.04;100.00
29379;BME280;16362;47.202;15.258;2022-11-14T09:33:13;96847.81;;;8.00;100.00
29379;BME280;16362;47.202;15.258;2022-11-14T09:35:40;96843.56;;;8.07;100.00
29379;BME280;16362;47.202;15.258;2022-11-14T09:38:09;96848.47;;;8.12;100.00
29379;BME280;16362;47.202;15.258;2022-11-14T09:45:52;96829.78;;;8.32;100.00
29379;BME280;16362;47.202;15.258;2022-11-14T09:48:22;96825.28;;;8.42;100.00
29379;BME280;16362;47.202;15.258;2022-11-14T09:51:15;96823.06;;;8.27;100.00
29379;BME280;16362;47.202;15.258;2022-11-14T09:53:49;96820.41;;;8.27;100.00
29379;BME280;16362;47.202;15.258;2022-11-14T09:56:25;96826.72;;;8.26;100.00
29379;BME280;16362;47.202;15.258;2022-11-14T09:58:52;96817.59;;;8.39;100.00
29379;BME280;16362;47.202;15.258;2022-11-14T10:07:24;96799.41;;;9.08;100.00
29379;BME280;16362;47.202;15.258;2022-11-14T10:09:58;96795.97;;;9.34;100.00
29379;BME280;16362;47.202;15.258;2022-11-14T10:12:51;96787.78;;;9.53;100.00
29379;BME280;16362;47.202;15.258;2022-11-14T10:15:25;96801.16;;;9.61;100.00
29379;BME280;16362;47.202;15.258;2022-11-14T10:18:23;96781.31;;;9.82;100.00
29379;BME280;16362;47.202;15.258;2022-11-14T10:21:02;96789.72;;;9.95;100.00
29379;BME280;16362;47.202;15.258;2022-11-14T10:26:39;96779.97;;;10.04;100.00
29379;BME280;16362;47.202;15.258;2022-11-14T10:29:45;96778.00;;;10.15;100.00
29379;BME280;16362;47.202;15.258;2022-11-14T10:35:03;96776.59;;;10.28;100.00
29379;BME280;16362;47.202;15.258;2022-11-14T10:40:51;96770.06;;;10.23;100.00
29379;BME280;16362;47.202;15.258;2022-11-14T10:43:22;96782.13;;;10.09;100.00
29379;BME280;16362;47.202;15.258;2022-11-14T10:46:12;96779.47;;;10.09;100.00
29379;BME280;16362;47.202;15.258;2022-11-14T10:48:44;96773.97;;;10.10;100.00
29379;BME280;16362;47.202;15.258;2022-11-14T10:51:23;96763.47;;;10.35;100.00
29379;BME280;16362;47.202;15.258;2022-11-14T10:54:05;96770.88;;;10.66;100.00
29379;BME280;16362;47.202;15.258;2022-11-14T10:56:52;96754.09;;;10.99;100.00
29379;BME280;16362;47.202;15.258;2022-11-14T10:59:20;96750.44;;;10.91;100.00
29379;BME280;16362;47.202;15.258;2022-11-14T11:06:54;96745.38;;;10.64;100.00
29379;BME280;16362;47.202;15.258;2022-11-14T11:09:24;96732.72;;;10.74;100.00
29379;BME280;16362;47.202;15.258;2022-11-14T11:12:23;96727.22;;;10.84;100.00
29379;BME280;16362;47.202;15.258;2022-11-14T11:15:25;96730.06;;;10.90;100.00
29379;BME280;16362;47.202;15.258;2022-11-14T11:17:57;96722.72;;;11.01;100.00
29379;BME280;16362;47.202;15.258;2022-11-14T11:20:28;96718.38;;;11.08;100.00
29379;BME280;16362;47.202;15.258;2022-11-14T11:25:38;96717.38;;;10.92;100.00
29379;BME280;16362;47.202;15.258;2022-11-14T11:28:17;96712.22;;;10.91;100.00
29379;BME280;16362;47.202;15.258;2022-11-14T11:33:26;96699.69;;;10.83;100.00
29379;BME280;16362;47.202;15.258;2022-11-14T11:35:56;96706.03;;;10.82;100.00
29379;BME280;16362;47.202;15.258;2022-11-14T11:38:26;96700.50;;;10.84;100.00
29379;BME280;16362;47.202;15.258;2022-11-14T11:41:00;96688.00;;;10.84;100.00
29379;BME280;16362;47.202;15.258;2022-11-14T11:43:39;96689.69;;;10.93;100.00
29379;BME280;16362;47.202;15.258;2022-11-14T11:46:16;96681.00;;;10.83;100.00
29379;BME280;16362;47.202;15.258;2022-11-14T11:48:46;96683.84;;;10.73;100.00
29379;BME280;16362;47.202;15.258;2022-11-14T11:51:18;96675.81;;;10.65;100.00
29379;BME280;16362;47.202;15.258;2022-11-14T11:54:03;96673.31;;;10.64;100.00
29379;BME280;16362;47.202;15.258;2022-11-14T11:56:34;96665.25;;;10.47;100.00
29379;BME280;16362;47.202;15.258;2022-11-14T11:59:25;96657.53;;;10.27;100.00
29379;BME280;16362;47.202;15.258;2022-11-14T12:01:55;96660.50;;;10.16;100.00
29379;BME280;16362;47.202;15.258;2022-11-14T12:04:22;96667.59;;;9.99;100.00
29379;BME280;16362;47.202;15.258;2022-11-14T12:06:59;96655.75;;;9.93;100.00
29379;BME280;16362;47.202;15.258;2022-11-14T12:09:38;96652.53;;;9.82;100.00
29379;BME280;16362;47.202;15.258;2022-11-14T12:21:03;96641.38;;;9.43;100.00
29379;BME280;16362;47.202;15.258;2022-11-14T12:26:58;96643.84;;;9.37;100.00
29379;BME280;16362;47.202;15.258;2022-11-14T12:31:55;96631.81;;;9.33;100.00
29379;BME280;16362;47.202;15.258;2022-11-14T12:34:28;96632.81;;;9.32;100.00
29379;BME280;16362;47.202;15.258;2022-11-14T12:36:57;96631.63;;;9.26;100.00
29379;BME280;16362;47.202;15.258;2022-11-14T12:39:29;96621.28;;;9.23;100.00
29379;BME280;16362;47.202;15.258;2022-11-14T12:42:04;96616.56;;;9.17;100.00
29379;BME280;16362;47.202;15.258;2022-11-14T12:44:37;96611.41;;;9.15;100.00
29379;BME280;16362;47.202;15.258;2022-11-14T13:00:20;96631.34;;;9.11;100.00
29379;BME280;16362;47.202;15.258;2022-11-14T13:06:03;96630.25;;;8.96;100.00
29379;BME280;16362;47.202;15.258;2022-11-14T13:08:50;96631.53;;;8.91;100.00
29379;BME280;16362;47.202;15.258;2022-11-14T13:11:39;96626.84;;;8.85;100.00
29379;BME280;16362;47.202;15.258;2022-11-14T13:14:25;96620.75;;;8.93;100.00
29379;BME280;16362;47.202;15.258;2022-11-14T13:28:49;96616.63;;;8.99;100.00
29379;BME280;16362;47.202;15.258;2022-11-14T13:40:17;96610.56;;;8.88;100.00
29379;BME280;16362;47.202;15.258;2022-11-14T13:46:00;96613.06;;;8.90;100.00
29379;BME280;16362;47.202;15.258;2022-11-14T13:48:41;96614.84;;;8.81;100.00
29379;BME280;16362;47.202;15.258;2022-11-14T13:51:16;96615.13;;;8.78;100.00
29379;BME280;16362;47.202;15.258;2022-11-14T13:54:11;96610.88;;;8.85;100.00
29379;BME280;16362;47.202;15.258;2022-11-14T13:56:49;96611.34;;;8.81;100.00
29379;BME280;16362;47.202;15.258;2022-11-14T13:59:45;96609.78;;;8.96;100.00
29379;BME280;16362;47.202;15.258;2022-11-14T14:05:11;96612.25;;;8.89;100.00
29379;BME280;16362;47.202;15.258;2022-11-14T14:16:06;96601.44;;;8.91;100.00
29379;BME280;16362;47.202;15.258;2022-11-14T14:24:02;96613.34;;;9.05;100.00
29379;BME280;16362;47.202;15.258;2022-11-14T14:26:44;96609.63;;;8.98;100.00
29379;BME280;16362;47.202;15.258;2022-11-14T14:29:31;96613.13;;;9.24;100.00
29379;BME280;16362;47.202;15.258;2022-11-14T14:32:15;96614.94;;;9.24;100.00
29379;BME280;16362;47.202;15.258;2022-11-14T14:34:43;96616.03;;;9.13;100.00
29379;BME280;16362;47.202;15.258;2022-11-14T14:37:21;96614.06;;;9.15;100.00
29379;BME280;16362;47.202;15.258;2022-11-14T14:39:59;96608.44;;;9.18;100.00
29379;BME280;16362;47.202;15.258;2022-11-14T14:42:32;96608.06;;;9.13;100.00
29379;BME280;16362;47.202;15.258;2022-11-14T14:45:02;96599.72;;;9.08;100.00
29379;BME280;16362;47.202;15.258;2022-11-14T14:47:40;96601.22;;;9.10;100.00
29379;BME280;16362;47.202;15.258;2022-11-14T14:50:29;96601.50;;;9.25;100.00